sensor_id;sensor_type;location;lat;lon;timestamp;pressure;altitude;pressure_sealevel;temperature;humidity
73242;BME280;65659;49.234;-2.094;2023-05-22T00:02:03;100865.65;;;19.44;40.62
73242;BME280;65659;49.234;-2.094;2023-05-22T00:04:29;100869.77;;;19.63;40.66
73242;BME280;65659;49.234;-2.094;2023-05-22T00:06:54;100871.96;;;19.37;40.57
73242;BME280;65659;49.234;-2.094;2023-05-22T00:09:20;100866.12;;;19.34;40.49
73242;BME280;65659;49.234;-2.094;2023-05-22T00:11:46;100867.25;;;19.60;40.47
73242;BME280;65659;49.234;-2.094;2023-05-22T00:14:12;100867.45;;;19.58;40.46
73242;BME280;65659;49.234;-2.094;2023-05-22T00:16:38;100865.52;;;19.34;40.46
73242;BME280;65659;49.234;-2.094;2023-05-22T00:19:03;100864.97;;;19.32;40.28
73242;BME280;65659;49.234;-2.094;2023-05-22T00:21:29;100858.63;;;19.54;40.10
73242;BME280;65659;49.234;-2.094;2023-05-22T00:23:55;100858.35;;;19.56;39.96
73242;BME280;65659;49.234;-2.094;2023-05-22T00:26:20;100857.91;;;19.79;39.89
73242;BME280;65659;49.234;-2.094;2023-05-22T00:28:46;100856.62;;;19.52;39.97
73242;BME280;65659;49.234;-2.094;2023-05-22T00:31:12;100857.81;;;19.52;40.01
73242;BME280;65659;49.234;-2.094;2023-05-22T00:33:38;100858.84;;;19.29;40.03
73242;BME280;65659;49.234;-2.094;2023-05-22T00:36:09;100858.18;;;19.51;40.01
73242;BME280;65659;49.234;-2.094;2023-05-22T00:38:35;100858.20;;;19.76;40.00
73242;BME280;65659;49.234;-2.094;2023-05-22T00:40:56;100860.11;;;19.75;40.06
73242;BME280;65659;49.234;-2.094;2023-05-22T00:43:21;100859.90;;;19.72;40.16
73242;BME280;65659;49.234;-2.094;2023-05-22T00:45:47;100860.45;;;19.23;40.19
73242;BME280;65659;49.234;-2.094;2023-05-22T00:48:14;100861.26;;;19.71;40.16
73242;BME280;65659;49.234;-2.094;2023-05-22T00:50:49;100859.40;;;19.22;40.13
73242;BME280;65659;49.234;-2.094;2023-05-22T00:53:04;100859.05;;;19.72;40.11
73242;BME280;65659;49.234;-2.094;2023-05-22T00:55:30;100854.66;;;19.49;40.11
73242;BME280;65659;49.234;-2.094;2023-05-22T00:57:55;100853.91;;;19.49;40.21
73242;BME280;65659;49.234;-2.094;2023-05-22T01:00:27;100852.92;;;19.28;40.26
73242;BME280;65659;49.234;-2.094;2023-05-22T01:02:47;100852.74;;;19.54;40.22
73242;BME280;65659;49.234;-2.094;2023-05-22T01:05:13;100848.48;;;19.57;40.21
73242;BME280;65659;49.234;-2.094;2023-05-22T01:07:38;100843.96;;;19.10;40.22
73242;BME280;65659;49.234;-2.094;2023-05-22T01:10:10;100842.39;;;19.34;40.23
73242;BME280;65659;49.234;-2.094;2023-05-22T01:12:40;100838.91;;;19.59;40.25
73242;BME280;65659;49.234;-2.094;2023-05-22T01:15:04;100835.81;;;19.33;40.32
73242;BME280;65659;49.234;-2.094;2023-05-22T01:17:27;100831.96;;;19.34;40.35
73242;BME280;65659;49.234;-2.094;2023-05-22T01:19:57;100828.36;;;19.34;40.21
73242;BME280;65659;49.234;-2.094;2023-05-22T01:22:22;100831.96;;;19.60;39.97
73242;BME280;65659;49.234;-2.094;2023-05-22T01:24:49;100836.25;;;19.16;39.85
73242;BME280;65659;49.234;-2.094;2023-05-22T01:27:19;100834.53;;;19.43;39.59
73242;BME280;65659;49.234;-2.094;2023-05-22T01:29:43;100833.65;;;19.45;39.47
73242;BME280;65659;49.234;-2.094;2023-05-22T01:31:58;100831.65;;;19.47;39.41
73242;BME280;65659;49.234;-2.094;2023-05-22T01:34:23;100829.57;;;19.49;39.42
73242;BME280;65659;49.234;-2.094;2023-05-22T01:36:50;100832.82;;;19.53;39.40
73242;BME280;65659;49.234;-2.094;2023-05-22T01:39:17;100831.90;;;19.57;39.46
73242;BME280;65659;49.234;-2.094;2023-05-22T01:41:40;100830.66;;;19.63;39.47
73242;BME280;65659;49.234;-2.094;2023-05-22T01:44:06;100828.51;;;19.92;39.48
73242;BME280;65659;49.234;-2.094;2023-05-22T01:46:32;100827.54;;;19.76;39.52
73242;BME280;65659;49.234;-2.094;2023-05-22T01:48:57;100821.10;;;19.83;39.52
73242;BME280;65659;49.234;-2.094;2023-05-22T01:51:32;100822.74;;;19.89;39.48
73242;BME280;65659;49.234;-2.094;2023-05-22T01:53:53;100818.32;;;19.95;39.46
73242;BME280;65659;49.234;-2.094;2023-05-22T01:56:20;100818.56;;;20.02;39.53
73242;BME280;65659;49.234;-2.094;2023-05-22T01:58:45;100817.99;;;19.84;39.60
73242;BME280;65659;49.234;-2.094;2023-05-22T02:01:07;100821.46;;;20.13;39.64
73242;BME280;65659;49.234;-2.094;2023-05-22T02:03:37;100816.90;;;20.02;39.50
73242;BME280;65659;49.234;-2.094;2023-05-22T02:06:00;100818.40;;;20.31;39.57
73242;BME280;65659;49.234;-2.094;2023-05-22T02:08:26;100814.82;;;20.34;39.58
73242;BME280;65659;49.234;-2.094;2023-05-22T02:10:49;100816.93;;;20.12;39.54
73242;BME280;65659;49.234;-2.094;2023-05-22T02:13:14;100815.35;;;20.40;39.52
73242;BME280;65659;49.234;-2.094;2023-05-22T02:15:40;100813.53;;;20.20;39.38
73242;BME280;65659;49.234;-2.094;2023-05-22T02:18:10;100809.09;;;20.27;39.27
73242;BME280;65659;49.234;-2.094;2023-05-22T02:20:31;100804.59;;;20.31;39.26
73242;BME280;65659;49.234;-2.094;2023-05-22T02:22:57;100800.31;;;20.32;39.28
73242;BME280;65659;49.234;-2.094;2023-05-22T02:25:23;100798.03;;;20.56;39.29
73242;BME280;65659;49.234;-2.094;2023-05-22T02:27:48;100793.91;;;20.57;39.29
73242;BME280;65659;49.234;-2.094;2023-05-22T02:30:14;100793.23;;;20.31;39.43
73242;BME280;65659;49.234;-2.094;2023-05-22T02:32:40;100794.17;;;20.31;39.49
73242;BME280;65659;49.234;-2.094;2023-05-22T02:35:11;100793.59;;;20.32;39.47
73242;BME280;65659;49.234;-2.094;2023-05-22T02:37:31;100791.57;;;20.54;39.50
73242;BME280;65659;49.234;-2.094;2023-05-22T02:39:57;100790.07;;;20.29;39.46
73242;BME280;65659;49.234;-2.094;2023-05-22T02:42:22;100790.43;;;20.72;38.96
73242;BME280;65659;49.234;-2.094;2023-05-22T02:44:48;100790.33;;;20.41;38.87
73242;BME280;65659;49.234;-2.094;2023-05-22T02:47:14;100790.73;;;20.36;39.01
73242;BME280;65659;49.234;-2.094;2023-05-22T02:49:45;100792.83;;;19.81;39.19
73242;BME280;65659;49.234;-2.094;2023-05-22T02:54:31;100800.31;;;20.03;39.77
73242;BME280;65659;49.234;-2.094;2023-05-22T02:56:57;100798.51;;;19.90;40.08
73242;BME280;65659;49.234;-2.094;2023-05-22T02:59:22;100797.51;;;19.72;40.36
73242;BME280;65659;49.234;-2.094;2023-05-22T03:01:48;100798.76;;;19.54;40.54
73242;BME280;65659;49.234;-2.094;2023-05-22T03:04:14;100803.60;;;19.43;40.79
73242;BME280;65659;49.234;-2.094;2023-05-22T03:06:40;100813.59;;;19.06;40.99
73242;BME280;65659;49.234;-2.094;2023-05-22T03:09:05;100805.49;;;19.64;41.21
73242;BME280;65659;49.234;-2.094;2023-05-22T03:11:31;100810.60;;;19.55;41.35
73242;BME280;65659;49.234;-2.094;2023-05-22T03:13:56;100805.55;;;18.97;41.52
73242;BME280;65659;49.234;-2.094;2023-05-22T03:16:22;100802.74;;;19.09;41.74
73242;BME280;65659;49.234;-2.094;2023-05-22T03:21:12;100802.21;;;19.16;42.25
73242;BME280;65659;49.234;-2.094;2023-05-22T03:23:38;100805.33;;;19.10;42.38
73242;BME280;65659;49.234;-2.094;2023-05-22T03:28:29;100801.03;;;18.71;42.71
73242;BME280;65659;49.234;-2.094;2023-05-22T03:30:54;100802.69;;;18.91;42.97
73242;BME280;65659;49.234;-2.094;2023-05-22T03:33:19;100799.24;;;19.07;43.13
73242;BME280;65659;49.234;-2.094;2023-05-22T03:35:45;100798.30;;;18.76;43.25
73242;BME280;65659;49.234;-2.094;2023-05-22T03:38:11;100796.17;;;18.71;43.24
73242;BME280;65659;49.234;-2.094;2023-05-22T03:40:42;100799.02;;;18.91;43.36
73242;BME280;65659;49.234;-2.094;2023-05-22T03:43:02;100800.26;;;18.63;43.33
73242;BME280;65659;49.234;-2.094;2023-05-22T03:45:28;100797.08;;;18.81;43.35
73242;BME280;65659;49.234;-2.094;2023-05-22T03:47:53;100798.08;;;18.54;43.46
73242;BME280;65659;49.234;-2.094;2023-05-22T03:50:19;100797.13;;;18.50;43.63
73242;BME280;65659;49.234;-2.094;2023-05-22T03:52:44;100795.97;;;18.43;43.66
73242;BME280;65659;49.234;-2.094;2023-05-22T03:55:28;100795.78;;;18.69;43.56
73242;BME280;65659;49.234;-2.094;2023-05-22T03:57:35;100799.12;;;18.65;43.45
73242;BME280;65659;49.234;-2.094;2023-05-22T04:00:00;100801.06;;;18.41;43.21
73242;BME280;65659;49.234;-2.094;2023-05-22T04:02:26;100800.77;;;18.62;43.01
73242;BME280;65659;49.234;-2.094;2023-05-22T04:04:52;100802.67;;;18.59;42.93
73242;BME280;65659;49.234;-2.094;2023-05-22T04:07:17;100804.39;;;18.59;42.95
73242;BME280;65659;49.234;-2.094;2023-05-22T04:09:43;100805.28;;;18.35;43.01
73242;BME280;65659;49.234;-2.094;2023-05-22T04:12:08;100809.66;;;18.33;43.02
73242;BME280;65659;49.234;-2.094;2023-05-22T04:14:33;100807.77;;;18.55;43.01
73242;BME280;65659;49.234;-2.094;2023-05-22T04:16:59;100808.39;;;18.32;42.95
73242;BME280;65659;49.234;-2.094;2023-05-22T04:19:25;100807.26;;;18.26;43.01
73242;BME280;65659;49.234;-2.094;2023-05-22T04:21:50;100805.31;;;18.22;43.01
73242;BME280;65659;49.234;-2.094;2023-05-22T04:24:15;100807.29;;;18.19;43.03
73242;BME280;65659;49.234;-2.094;2023-05-22T04:26:41;100808.11;;;18.16;43.05
73242;BME280;65659;49.234;-2.094;2023-05-22T04:29:06;100806.86;;;18.36;43.03
73242;BME280;65659;49.234;-2.094;2023-05-22T04:31:32;100805.54;;;18.14;43.04
73242;BME280;65659;49.234;-2.094;2023-05-22T04:33:58;100804.01;;;18.63;43.06
73242;BME280;65659;49.234;-2.094;2023-05-22T04:36:24;100805.33;;;18.64;43.11
73242;BME280;65659;49.234;-2.094;2023-05-22T04:38:49;100804.98;;;18.39;43.12
73242;BME280;65659;49.234;-2.094;2023-05-22T04:41:14;100806.38;;;18.40;43.23
73242;BME280;65659;49.234;-2.094;2023-05-22T04:43:40;100809.05;;;18.17;43.30
73242;BME280;65659;49.234;-2.094;2023-05-22T04:46:05;100810.30;;;18.43;43.35
73242;BME280;65659;49.234;-2.094;2023-05-22T04:48:31;100811.31;;;18.69;43.36
73242;BME280;65659;49.234;-2.094;2023-05-22T04:50:56;100810.89;;;18.70;43.42
73242;BME280;65659;49.234;-2.094;2023-05-22T04:53:21;100813.38;;;18.45;43.52
73242;BME280;65659;49.234;-2.094;2023-05-22T04:55:47;100815.80;;;18.46;43.55
73242;BME280;65659;49.234;-2.094;2023-05-22T04:58:12;100816.69;;;18.24;43.53
73242;BME280;65659;49.234;-2.094;2023-05-22T05:00:57;100818.65;;;18.71;43.55
73242;BME280;65659;49.234;-2.094;2023-05-22T05:03:03;100821.38;;;18.48;43.54
73242;BME280;65659;49.234;-2.094;2023-05-22T05:05:28;100822.47;;;18.29;43.52
73242;BME280;65659;49.234;-2.094;2023-05-22T05:07:54;100819.75;;;18.28;43.48
73242;BME280;65659;49.234;-2.094;2023-05-22T05:10:19;100818.78;;;18.57;43.37
73242;BME280;65659;49.234;-2.094;2023-05-22T05:12:44;100819.85;;;18.40;43.33
73242;BME280;65659;49.234;-2.094;2023-05-22T05:15:10;100821.61;;;18.40;43.22
73242;BME280;65659;49.234;-2.094;2023-05-22T05:17:36;100820.08;;;18.72;42.97
73242;BME280;65659;49.234;-2.094;2023-05-22T05:20:02;100819.95;;;18.50;42.78
73242;BME280;65659;49.234;-2.094;2023-05-22T05:22:26;100819.60;;;18.70;42.54
73242;BME280;65659;49.234;-2.094;2023-05-22T05:24:52;100820.15;;;18.61;42.40
73242;BME280;65659;49.234;-2.094;2023-05-22T05:27:17;100818.87;;;18.42;41.98
73242;BME280;65659;49.234;-2.094;2023-05-22T05:29:43;100826.14;;;18.51;41.81
73242;BME280;65659;49.234;-2.094;2023-05-22T05:32:09;100822.12;;;18.75;41.62
73242;BME280;65659;49.234;-2.094;2023-05-22T05:34:34;100820.69;;;18.77;41.45
73242;BME280;65659;49.234;-2.094;2023-05-22T05:37:04;100821.65;;;18.55;41.15
73242;BME280;65659;49.234;-2.094;2023-05-22T05:39:25;100823.44;;;18.53;40.77
73242;BME280;65659;49.234;-2.094;2023-05-22T05:41:51;100822.98;;;18.58;40.56
73242;BME280;65659;49.234;-2.094;2023-05-22T05:44:16;100821.58;;;18.78;40.42
73242;BME280;65659;49.234;-2.094;2023-05-22T05:46:41;100823.91;;;18.77;40.57
73242;BME280;65659;49.234;-2.094;2023-05-22T05:49:11;100826.12;;;18.69;40.44
73242;BME280;65659;49.234;-2.094;2023-05-22T05:51:32;100830.89;;;18.71;40.31
73242;BME280;65659;49.234;-2.094;2023-05-22T05:53:57;100828.55;;;18.53;40.40
73242;BME280;65659;49.234;-2.094;2023-05-22T05:56:23;100829.90;;;18.41;40.15
73242;BME280;65659;49.234;-2.094;2023-05-22T05:58:48;100827.28;;;18.60;40.16
73242;BME280;65659;49.234;-2.094;2023-05-22T06:01:14;100829.90;;;18.42;40.06
73242;BME280;65659;49.234;-2.094;2023-05-22T06:03:40;100830.54;;;18.32;39.76
73242;BME280;65659;49.234;-2.094;2023-05-22T06:06:06;100840.83;;;18.59;39.55
73242;BME280;65659;49.234;-2.094;2023-05-22T06:08:31;100845.79;;;18.61;39.57
73242;BME280;65659;49.234;-2.094;2023-05-22T06:10:57;100843.13;;;18.67;39.52
73242;BME280;65659;49.234;-2.094;2023-05-22T06:13:23;100845.90;;;18.46;39.66
73242;BME280;65659;49.234;-2.094;2023-05-22T06:15:49;100850.12;;;18.67;39.83
73242;BME280;65659;49.234;-2.094;2023-05-22T06:18:16;100855.15;;;18.83;39.56
73242;BME280;65659;49.234;-2.094;2023-05-22T06:20:40;100858.59;;;18.63;39.46
73242;BME280;65659;49.234;-2.094;2023-05-22T06:23:06;100857.03;;;18.97;38.33
73242;BME280;65659;49.234;-2.094;2023-05-22T06:25:32;100860.25;;;18.78;38.60
73242;BME280;65659;49.234;-2.094;2023-05-22T06:27:58;100861.67;;;18.65;38.50
73242;BME280;65659;49.234;-2.094;2023-05-22T06:30:24;100859.04;;;19.07;38.55
73242;BME280;65659;49.234;-2.094;2023-05-22T06:32:49;100859.38;;;19.13;38.72
73242;BME280;65659;49.234;-2.094;2023-05-22T06:35:16;100862.46;;;19.11;38.88
73242;BME280;65659;49.234;-2.094;2023-05-22T06:37:41;100863.54;;;18.72;38.69
73242;BME280;65659;49.234;-2.094;2023-05-22T06:40:08;100867.51;;;18.84;38.59
73242;BME280;65659;49.234;-2.094;2023-05-22T06:42:33;100867.21;;;18.71;38.06
73242;BME280;65659;49.234;-2.094;2023-05-22T06:45:00;100869.12;;;19.16;37.76
73242;BME280;65659;49.234;-2.094;2023-05-22T06:47:25;100870.95;;;19.09;37.63
73242;BME280;65659;49.234;-2.094;2023-05-22T06:49:50;100874.59;;;19.51;37.33
73242;BME280;65659;49.234;-2.094;2023-05-22T06:52:16;100877.17;;;19.62;37.24
73242;BME280;65659;49.234;-2.094;2023-05-22T06:54:42;100875.78;;;19.51;37.04
73242;BME280;65659;49.234;-2.094;2023-05-22T06:57:08;100872.35;;;19.69;36.76
73242;BME280;65659;49.234;-2.094;2023-05-22T06:59:33;100874.62;;;19.68;36.43
73242;BME280;65659;49.234;-2.094;2023-05-22T07:02:02;100874.92;;;19.53;36.00
73242;BME280;65659;49.234;-2.094;2023-05-22T07:04:25;100880.73;;;19.88;35.68
73242;BME280;65659;49.234;-2.094;2023-05-22T07:06:52;100880.79;;;20.06;35.42
73242;BME280;65659;49.234;-2.094;2023-05-22T07:09:18;100882.84;;;19.88;35.24
73242;BME280;65659;49.234;-2.094;2023-05-22T07:11:42;100888.28;;;19.93;34.70
73242;BME280;65659;49.234;-2.094;2023-05-22T07:14:08;100889.91;;;20.00;34.43
73242;BME280;65659;49.234;-2.094;2023-05-22T07:18:59;100889.77;;;19.99;34.00
73242;BME280;65659;49.234;-2.094;2023-05-22T07:21:26;100888.66;;;19.80;34.00
73242;BME280;65659;49.234;-2.094;2023-05-22T07:23:52;100893.38;;;19.91;33.72
73242;BME280;65659;49.234;-2.094;2023-05-22T07:26:33;100894.67;;;20.06;33.64
73242;BME280;65659;49.234;-2.094;2023-05-22T07:28:52;100894.97;;;20.11;33.87
73242;BME280;65659;49.234;-2.094;2023-05-22T07:33:56;100894.49;;;20.02;34.16
73242;BME280;65659;49.234;-2.094;2023-05-22T07:36:26;100894.90;;;20.58;34.30
73242;BME280;65659;49.234;-2.094;2023-05-22T07:38:49;100902.77;;;21.13;34.41
73242;BME280;65659;49.234;-2.094;2023-05-22T07:43:18;100906.52;;;20.25;35.04
73242;BME280;65659;49.234;-2.094;2023-05-22T07:45:43;100909.49;;;20.30;34.66
73242;BME280;65659;49.234;-2.094;2023-05-22T07:48:10;100910.19;;;20.97;33.99
73242;BME280;65659;49.234;-2.094;2023-05-22T07:50:36;100910.99;;;20.95;33.62
73242;BME280;65659;49.234;-2.094;2023-05-22T07:53:01;100908.68;;;20.91;33.81
73242;BME280;65659;49.234;-2.094;2023-05-22T07:55:27;100909.42;;;20.89;33.98
73242;BME280;65659;49.234;-2.094;2023-05-22T07:57:53;100911.08;;;20.91;33.45
73242;BME280;65659;49.234;-2.094;2023-05-22T08:00:20;100910.90;;;20.78;33.39
73242;BME280;65659;49.234;-2.094;2023-05-22T08:02:43;100909.12;;;20.83;33.20
73242;BME280;65659;49.234;-2.094;2023-05-22T08:05:10;100912.47;;;21.18;33.14
73242;BME280;65659;49.234;-2.094;2023-05-22T08:07:35;100913.45;;;20.94;33.03
73242;BME280;65659;49.234;-2.094;2023-05-22T08:10:05;100918.83;;;20.82;32.87
73242;BME280;65659;49.234;-2.094;2023-05-22T08:12:28;100916.21;;;21.25;32.78
73242;BME280;65659;49.234;-2.094;2023-05-22T08:14:54;100918.57;;;21.26;33.25
73242;BME280;65659;49.234;-2.094;2023-05-22T08:19:46;100916.89;;;20.97;32.58
73242;BME280;65659;49.234;-2.094;2023-05-22T08:22:11;100910.68;;;21.27;32.31
73242;BME280;65659;49.234;-2.094;2023-05-22T08:24:35;100913.46;;;21.41;32.08
73242;BME280;65659;49.234;-2.094;2023-05-22T08:27:03;100909.61;;;21.49;31.90
73242;BME280;65659;49.234;-2.094;2023-05-22T08:29:30;100915.97;;;21.61;31.85
73242;BME280;65659;49.234;-2.094;2023-05-22T08:31:55;100915.00;;;21.71;31.79
73242;BME280;65659;49.234;-2.094;2023-05-22T08:34:20;100912.75;;;21.60;31.83
73242;BME280;65659;49.234;-2.094;2023-05-22T08:37:08;100914.47;;;21.82;31.64
73242;BME280;65659;49.234;-2.094;2023-05-22T08:48:57;100921.30;;;20.91;32.52
73242;BME280;65659;49.234;-2.094;2023-05-22T08:51:21;100915.96;;;21.38;31.81
73242;BME280;65659;49.234;-2.094;2023-05-22T08:53:52;100909.27;;;21.39;31.44
73242;BME280;65659;49.234;-2.094;2023-05-22T08:56:13;100910.05;;;21.54;30.95
73242;BME280;65659;49.234;-2.094;2023-05-22T08:58:39;100907.00;;;21.68;30.80
73242;BME280;65659;49.234;-2.094;2023-05-22T09:01:04;100902.39;;;21.73;30.67
73242;BME280;65659;49.234;-2.094;2023-05-22T09:03:30;100905.35;;;21.78;30.78
73242;BME280;65659;49.234;-2.094;2023-05-22T09:05:57;100909.51;;;21.74;30.98
73242;BME280;65659;49.234;-2.094;2023-05-22T09:08:22;100909.56;;;21.57;31.05
73242;BME280;65659;49.234;-2.094;2023-05-22T09:10:45;100912.44;;;21.67;30.93
73242;BME280;65659;49.234;-2.094;2023-05-22T09:13:29;100908.90;;;21.49;31.10
73242;BME280;65659;49.234;-2.094;2023-05-22T09:15:45;100910.80;;;21.56;30.66
73242;BME280;65659;49.234;-2.094;2023-05-22T09:18:03;100909.05;;;21.62;30.50
73242;BME280;65659;49.234;-2.094;2023-05-22T09:23:00;100915.56;;;21.86;30.56
73242;BME280;65659;49.234;-2.094;2023-05-22T09:25:27;100914.63;;;21.50;30.30
73242;BME280;65659;49.234;-2.094;2023-05-22T09:27:48;100909.22;;;21.54;30.29
73242;BME280;65659;49.234;-2.094;2023-05-22T09:30:18;100915.16;;;21.38;30.36
73242;BME280;65659;49.234;-2.094;2023-05-22T09:32:41;100911.34;;;21.66;29.81
73242;BME280;65659;49.234;-2.094;2023-05-22T09:35:06;100907.64;;;21.73;29.68
73242;BME280;65659;49.234;-2.094;2023-05-22T09:37:37;100911.48;;;21.47;29.92
73242;BME280;65659;49.234;-2.094;2023-05-22T09:39:54;100910.79;;;21.68;30.08
73242;BME280;65659;49.234;-2.094;2023-05-22T09:42:20;100909.89;;;21.53;30.34
73242;BME280;65659;49.234;-2.094;2023-05-22T09:44:51;100915.25;;;21.86;30.36
73242;BME280;65659;49.234;-2.094;2023-05-22T09:47:11;100918.05;;;21.85;30.76
73242;BME280;65659;49.234;-2.094;2023-05-22T09:52:08;100913.52;;;21.57;30.78
73242;BME280;65659;49.234;-2.094;2023-05-22T09:54:30;100902.28;;;21.14;31.10
73242;BME280;65659;49.234;-2.094;2023-05-22T09:56:56;100908.82;;;21.48;31.23
73242;BME280;65659;49.234;-2.094;2023-05-22T09:59:21;100905.83;;;21.40;31.02
73242;BME280;65659;49.234;-2.094;2023-05-22T10:01:45;100905.18;;;21.62;31.31
73242;BME280;65659;49.234;-2.094;2023-05-22T10:04:13;100910.16;;;21.86;31.09
73242;BME280;65659;49.234;-2.094;2023-05-22T10:06:36;100903.69;;;21.58;31.32
73242;BME280;65659;49.234;-2.094;2023-05-22T10:09:08;100911.91;;;21.67;31.25
73242;BME280;65659;49.234;-2.094;2023-05-22T10:11:29;100901.89;;;21.91;30.99
73242;BME280;65659;49.234;-2.094;2023-05-22T10:13:53;100901.93;;;21.84;31.23
73242;BME280;65659;49.234;-2.094;2023-05-22T10:16:29;100900.42;;;21.87;31.06
73242;BME280;65659;49.234;-2.094;2023-05-22T10:18:46;100895.45;;;21.73;31.12
73242;BME280;65659;49.234;-2.094;2023-05-22T10:21:10;100900.61;;;21.83;30.88
73242;BME280;65659;49.234;-2.094;2023-05-22T10:23:45;100898.17;;;21.59;30.81
73242;BME280;65659;49.234;-2.094;2023-05-22T10:26:02;100906.60;;;21.88;30.87
73242;BME280;65659;49.234;-2.094;2023-05-22T10:28:34;100908.50;;;22.10;30.74
73242;BME280;65659;49.234;-2.094;2023-05-22T10:31:01;100908.94;;;21.66;31.15
73242;BME280;65659;49.234;-2.094;2023-05-22T10:33:27;100918.47;;;21.79;30.94
73242;BME280;65659;49.234;-2.094;2023-05-22T10:35:48;100920.43;;;22.16;30.85
73242;BME280;65659;49.234;-2.094;2023-05-22T10:38:27;100921.02;;;22.64;31.00
73242;BME280;65659;49.234;-2.094;2023-05-22T10:40:34;100930.23;;;23.23;31.57
73242;BME280;65659;49.234;-2.094;2023-05-22T10:43:01;100932.90;;;22.39;32.68
73242;BME280;65659;49.234;-2.094;2023-05-22T10:45:28;100932.65;;;20.80;33.01
73242;BME280;65659;49.234;-2.094;2023-05-22T10:48:03;100929.35;;;21.25;31.88
73242;BME280;65659;49.234;-2.094;2023-05-22T10:50:21;100927.69;;;21.66;31.14
73242;BME280;65659;49.234;-2.094;2023-05-22T10:52:46;100925.17;;;22.12;30.99
73242;BME280;65659;49.234;-2.094;2023-05-22T10:55:11;100922.81;;;22.13;30.67
73242;BME280;65659;49.234;-2.094;2023-05-22T10:57:36;100923.70;;;22.54;30.39
73242;BME280;65659;49.234;-2.094;2023-05-22T11:00:14;100922.68;;;21.97;30.33
73242;BME280;65659;49.234;-2.094;2023-05-22T11:02:30;100917.83;;;21.87;30.15
73242;BME280;65659;49.234;-2.094;2023-05-22T11:04:51;100921.48;;;22.89;29.99
73242;BME280;65659;49.234;-2.094;2023-05-22T11:07:17;100921.59;;;22.45;30.11
73242;BME280;65659;49.234;-2.094;2023-05-22T11:09:45;100921.13;;;23.19;30.21
73242;BME280;65659;49.234;-2.094;2023-05-22T11:12:25;100919.48;;;22.19;30.63
73242;BME280;65659;49.234;-2.094;2023-05-22T11:14:36;100919.34;;;22.58;30.43
73242;BME280;65659;49.234;-2.094;2023-05-22T11:17:01;100919.31;;;22.86;29.93
73242;BME280;65659;49.234;-2.094;2023-05-22T11:19:26;100919.20;;;22.75;30.01
73242;BME280;65659;49.234;-2.094;2023-05-22T11:21:58;100908.81;;;22.73;29.60
73242;BME280;65659;49.234;-2.094;2023-05-22T11:24:17;100906.40;;;22.48;29.12
73242;BME280;65659;49.234;-2.094;2023-05-22T11:26:43;100900.41;;;23.54;28.96
73242;BME280;65659;49.234;-2.094;2023-05-22T11:29:09;100905.01;;;22.77;29.20
73242;BME280;65659;49.234;-2.094;2023-05-22T11:31:36;100906.32;;;22.69;28.96
73242;BME280;65659;49.234;-2.094;2023-05-22T11:34:02;100909.67;;;22.85;28.96
73242;BME280;65659;49.234;-2.094;2023-05-22T11:36:27;100907.51;;;23.08;29.30
73242;BME280;65659;49.234;-2.094;2023-05-22T11:38:50;100914.06;;;23.34;29.13
73242;BME280;65659;49.234;-2.094;2023-05-22T11:41:18;100918.27;;;22.86;29.35
73242;BME280;65659;49.234;-2.094;2023-05-22T11:43:44;100920.95;;;23.09;29.19
73242;BME280;65659;49.234;-2.094;2023-05-22T11:46:09;100921.75;;;23.06;29.09
73242;BME280;65659;49.234;-2.094;2023-05-22T11:48:32;100911.75;;;23.49;29.05
73242;BME280;65659;49.234;-2.094;2023-05-22T11:50:58;100913.84;;;23.65;29.09
73242;BME280;65659;49.234;-2.094;2023-05-22T11:53:24;100911.67;;;23.60;28.76
73242;BME280;65659;49.234;-2.094;2023-05-22T11:55:50;100909.85;;;23.89;28.80
73242;BME280;65659;49.234;-2.094;2023-05-22T11:58:15;100912.03;;;23.87;28.28
73242;BME280;65659;49.234;-2.094;2023-05-22T12:00:43;100917.98;;;24.09;27.80
73242;BME280;65659;49.234;-2.094;2023-05-22T12:03:07;100912.56;;;24.08;27.72
73242;BME280;65659;49.234;-2.094;2023-05-22T12:05:32;100912.17;;;24.14;27.74
73242;BME280;65659;49.234;-2.094;2023-05-22T12:07:57;100915.48;;;24.02;27.77
73242;BME280;65659;49.234;-2.094;2023-05-22T12:10:26;100918.69;;;24.16;27.76
73242;BME280;65659;49.234;-2.094;2023-05-22T12:12:49;100922.12;;;24.34;27.86
73242;BME280;65659;49.234;-2.094;2023-05-22T12:15:18;100911.80;;;23.92;27.83
73242;BME280;65659;49.234;-2.094;2023-05-22T12:17:42;100910.12;;;24.27;27.87
73242;BME280;65659;49.234;-2.094;2023-05-22T12:20:06;100921.03;;;24.13;27.84
73242;BME280;65659;49.234;-2.094;2023-05-22T12:22:31;100917.89;;;24.17;27.62
73242;BME280;65659;49.234;-2.094;2023-05-22T12:24:56;100917.25;;;24.19;27.22
73242;BME280;65659;49.234;-2.094;2023-05-22T12:27:23;100911.44;;;24.74;27.11
73242;BME280;65659;49.234;-2.094;2023-05-22T12:29:48;100911.92;;;24.74;27.09
73242;BME280;65659;49.234;-2.094;2023-05-22T12:32:14;100914.59;;;24.96;26.81
73242;BME280;65659;49.234;-2.094;2023-05-22T12:34:44;100917.18;;;24.49;26.90
73242;BME280;65659;49.234;-2.094;2023-05-22T12:37:05;100913.35;;;24.87;26.67
73242;BME280;65659;49.234;-2.094;2023-05-22T12:39:30;100916.41;;;25.07;26.63
73242;BME280;65659;49.234;-2.094;2023-05-22T12:41:55;100914.01;;;24.96;26.50
73242;BME280;65659;49.234;-2.094;2023-05-22T12:44:20;100917.03;;;24.96;26.53
73242;BME280;65659;49.234;-2.094;2023-05-22T12:46:47;100917.41;;;25.27;26.03
73242;BME280;65659;49.234;-2.094;2023-05-22T12:49:12;100918.33;;;25.28;25.46
73242;BME280;65659;49.234;-2.094;2023-05-22T12:51:40;100912.94;;;25.41;25.33
73242;BME280;65659;49.234;-2.094;2023-05-22T12:54:04;100914.64;;;25.66;25.13
73242;BME280;65659;49.234;-2.094;2023-05-22T12:56:29;100912.94;;;25.62;25.54
73242;BME280;65659;49.234;-2.094;2023-05-22T12:58:56;100918.09;;;26.25;25.33
73242;BME280;65659;49.234;-2.094;2023-05-22T13:01:20;100921.76;;;26.20;25.13
73242;BME280;65659;49.234;-2.094;2023-05-22T13:03:46;100918.16;;;25.82;25.22